Time;durP1;ratioP1;P1;durP2;ratioP2;P2;SDS_P1;SDS_P2;PMS_P1;PMS_P2;Temp;Humidity;BMP_temperature;BMP_pressure;BME280_temperature;BME280_humidity;BME280_pressure;Samples;Min_cycle;Max_cycle;Signal;HPM_P1;HPM_P2
2022/01/09 00:02:04;;;;;;;3.20;2.10;;;;;;;2.21;69.26;97526.59;10468215;28;20049;-66
2022/01/09 00:07:06;;;;;;;3.55;2.13;;;;;;;2.36;69.19;97509.31;10467440;28;20053;-66
2022/01/09 00:12:08;;;;;;;3.30;2.10;;;;;;;2.47;68.86;97509.44;10449932;28;20063;-66
2022/01/09 00:17:09;;;;;;;3.78;2.40;;;;;;;2.58;68.75;97499.25;10467320;28;20556;-66
2022/01/09 00:22:13;;;;;;;4.00;2.35;;;;;;;2.71;68.53;97498.31;10449383;28;20056;-66
2022/01/09 00:27:15;;;;;;;5.10;2.90;;;;;;;2.77;68.46;97479.84;10467272;28;20602;-66
2022/01/09 00:32:17;;;;;;;5.70;3.08;;;;;;;2.80;68.39;97465.91;10449795;28;20052;-66
2022/01/09 00:37:18;;;;;;;6.85;3.88;;;;;;;2.72;68.52;97461.28;10467030;28;20053;-66
2022/01/09 00:42:21;;;;;;;5.88;3.22;;;;;;;2.79;68.52;97454.75;10467250;28;20062;-66
2022/01/09 00:47:22;;;;;;;4.60;3.33;;;;;;;2.89;68.50;97436.88;10466734;28;20056;-66
2022/01/09 00:52:24;;;;;;;5.28;3.75;;;;;;;2.93;68.36;97436.56;10467193;28;20068;-66
2022/01/09 00:57:26;;;;;;;5.63;3.67;;;;;;;2.87;68.20;97424.09;10466300;28;20556;-66
2022/01/09 01:02:28;;;;;;;4.32;2.33;;;;;;;2.86;68.03;97417.28;10466116;28;20311;-68
2022/01/09 01:07:29;;;;;;;6.68;3.20;;;;;;;2.78;68.58;97413.56;10466336;28;21088;-66
2022/01/09 01:12:32;;;;;;;3.72;2.20;;;;;;;2.86;68.36;97409.53;10448611;28;20478;-65
2022/01/09 01:17:35;;;;;;;3.38;1.90;;;;;;;2.89;68.32;97405.91;10466013;28;20053;-66
2022/01/09 01:22:39;;;;;;;3.05;1.70;;;;;;;2.84;68.27;97398.50;10449000;28;20067;-66
2022/01/09 01:27:41;;;;;;;3.22;2.10;;;;;;;2.89;68.25;97400.75;10472721;28;20056;-66
2022/01/09 01:32:43;;;;;;;3.80;2.60;;;;;;;2.94;68.23;97399.50;10472936;28;20059;-66
2022/01/09 01:37:45;;;;;;;5.68;3.58;;;;;;;2.87;68.63;97403.44;10455996;28;20064;-66
2022/01/09 01:42:47;;;;;;;14.27;7.78;;;;;;;2.76;68.66;97405.94;10473571;28;20666;-66
2022/01/09 01:47:49;;;;;;;9.43;6.85;;;;;;;2.62;69.26;97411.19;10473498;28;20143;-66
2022/01/09 01:52:52;;;;;;;11.23;7.15;;;;;;;2.76;69.04;97400.78;10473169;28;20278;-66
2022/01/09 01:57:54;;;;;;;10.30;7.30;;;;;;;2.72;69.39;97399.34;10472638;28;20512;-66
2022/01/09 02:02:55;;;;;;;265.73;17.83;;;;;;;2.84;69.02;97395.09;10472880;28;20389;-66
2022/01/09 02:08:00;;;;;;;204.75;21.63;;;;;;;2.85;68.96;97399.28;10472720;28;20062;-66
2022/01/09 02:13:02;;;;;;;26.40;11.45;;;;;;;2.82;68.98;97397.78;10471527;28;20055;-66
2022/01/09 02:18:07;;;;;;;8.30;5.93;;;;;;;2.90;69.01;97394.66;10472116;28;20048;-66
2022/01/09 02:23:12;;;;;;;7.28;5.25;;;;;;;2.85;68.81;97394.97;10471396;28;20067;-66
2022/01/09 02:28:15;;;;;;;7.53;5.90;;;;;;;2.80;68.83;97391.91;10471434;28;20519;-66
2022/01/09 02:33:17;;;;;;;10.68;7.90;;;;;;;2.83;68.75;97385.66;10472317;28;20262;-66
2022/01/09 02:38:19;;;;;;;5.68;3.30;;;;;;;2.85;68.96;97388.97;10469847;28;20110;-66
2022/01/09 02:43:22;;;;;;;4.38;2.85;;;;;;;2.92;68.99;97392.78;10471379;28;20052;-66
2022/01/09 02:48:26;;;;;;;3.50;2.10;;;;;;;2.89;69.15;97391.25;10470730;28;20393;-66
2022/01/09 02:53:33;;;;;;;2.63;1.60;;;;;;;2.81;69.35;97392.69;10470925;28;20064;-66
2022/01/09 02:58:37;;;;;;;2.50;1.60;;;;;;;2.76;69.64;97395.63;10469845;28;20055;-66
2022/01/09 03:03:39;;;;;;;2.28;1.40;;;;;;;2.75;69.88;97409.44;10474703;28;20519;-66
2022/01/09 03:08:41;;;;;;;1.85;1.10;;;;;;;2.68;70.46;97417.72;10460439;28;20082;-66
2022/01/09 03:13:43;;;;;;;0.80;0.80;;;;;;;2.64;70.46;97429.97;10477446;28;20692;-66
2022/01/09 03:18:44;;;;;;;1.50;1.00;;;;;;;2.65;70.72;97441.97;10476939;28;20527;-66
2022/01/09 03:23:46;;;;;;;0.80;0.77;;;;;;;2.68;71.06;97444.31;10477144;28;20063;-66
2022/01/09 03:28:48;;;;;;;0.90;0.85;;;;;;;2.75;71.01;97455.88;10477550;28;20136;-66
2022/01/09 03:33:49;;;;;;;1.10;1.00;;;;;;;2.82;71.03;97466.63;10477171;28;20461;-68
2022/01/09 03:38:51;;;;;;;0.77;0.77;;;;;;;2.79;71.27;97479.72;10476835;28;20088;-66
2022/01/09 03:43:53;;;;;;;0.60;0.60;;;;;;;2.81;71.25;97486.44;10476881;28;20501;-65
2022/01/09 03:48:54;;;;;;;1.38;0.60;;;;;;;2.77;71.27;97502.22;10475607;28;20552;-66
2022/01/09 03:53:56;;;;;;;0.43;0.43;;;;;;;2.87;70.94;97522.16;10476558;28;20052;-68
2022/01/09 03:58:59;;;;;;;0.55;0.50;;;;;;;2.84;70.86;97534.47;10476177;28;20586;-66
2022/01/09 04:04:01;;;;;;;0.40;0.40;;;;;;;2.81;71.00;97563.03;10472547;28;20107;-68
2022/01/09 04:09:08;;;;;;;0.32;0.32;;;;;;;2.80;70.48;97566.56;10469932;28;20509;-68
2022/01/09 04:14:09;;;;;;;0.30;0.30;;;;;;;2.81;70.62;97576.78;10468295;28;20154;-67
2022/01/09 04:19:13;;;;;;;0.20;0.20;;;;;;;2.58;70.64;97587.75;10468239;28;20139;-67
2022/01/09 04:24:15;;;;;;;0.80;0.50;;;;;;;2.55;70.47;97603.47;10467781;28;20159;-68
2022/01/09 04:29:17;;;;;;;0.40;0.40;;;;;;;2.45;70.69;97614.47;10468560;28;20151;-67
2022/01/09 04:34:18;;;;;;;0.40;0.40;;;;;;;2.40;70.88;97630.22;10468243;28;20062;-68
2022/01/09 04:39:20;;;;;;;0.40;0.40;;;;;;;2.20;71.24;97649.53;10467770;28;20063;-68
2022/01/09 04:44:23;;;;;;;0.45;0.30;;;;;;;2.19;71.25;97654.81;10467478;28;20058;-68
2022/01/09 04:49:28;;;;;;;2.03;0.40;;;;;;;2.25;70.98;97677.63;10450220;28;20138;-67
2022/01/09 04:54:30;;;;;;;0.22;0.22;;;;;;;2.11;71.17;97700.84;10467962;28;20090;-67
2022/01/09 04:59:32;;;;;;;0.50;0.40;;;;;;;2.13;71.03;97709.31;10468330;28;20099;-67
2022/01/09 05:04:34;;;;;;;0.40;0.38;;;;;;;2.14;70.60;97716.94;10476171;28;20060;-67
2022/01/09 05:09:35;;;;;;;5.10;0.60;;;;;;;2.19;70.66;97727.00;10475990;28;20403;-67
2022/01/09 05:14:37;;;;;;;0.82;0.50;;;;;;;2.22;70.54;97731.94;10475542;28;20101;-67
2022/01/09 05:19:40;;;;;;;2.03;0.47;;;;;;;2.06;70.89;97754.44;10457687;28;20400;-67
2022/01/09 05:24:42;;;;;;;1.10;0.68;;;;;;;2.12;70.50;97764.38;10474794;28;20052;-67
2022/01/09 05:29:44;;;;;;;1.48;0.77;;;;;;;2.06;70.99;97772.47;10474936;28;20087;-67
2022/01/09 05:34:47;;;;;;;1.40;0.80;;;;;;;2.09;70.92;97780.84;10456001;28;20056;-67
2022/01/09 05:39:48;;;;;;;1.63;0.80;;;;;;;2.07;71.23;97787.03;10474778;28;20147;-68
2022/01/09 05:44:50;;;;;;;3.55;1.20;;;;;;;2.17;71.22;97803.63;10474382;28;20184;-68
2022/01/09 05:49:52;;;;;;;5.30;1.48;;;;;;;2.18;71.67;97815.56;10474449;28;20048;-67
2022/01/09 05:54:53;;;;;;;4.30;1.40;;;;;;;2.35;71.29;97830.88;10456416;28;20168;-67
2022/01/09 05:59:55;;;;;;;9.10;2.10;;;;;;;2.39;71.50;97850.41;10473111;28;20056;-67
2022/01/09 06:04:57;;;;;;;8.73;2.00;;;;;;;2.57;71.45;97853.63;10473792;28;20053;-68
2022/01/09 06:09:58;;;;;;;15.30;2.47;;;;;;;2.68;71.17;97867.53;10473630;28;20078;-67
2022/01/09 06:15:00;;;;;;;18.95;3.65;;;;;;;2.76;71.12;97883.41;10473004;28;20055;-67
2022/01/09 06:20:03;;;;;;;12.82;2.58;;;;;;;2.90;70.80;97882.56;10472827;28;20078;-66
2022/01/09 06:25:06;;;;;;;13.85;2.35;;;;;;;2.73;71.26;97901.66;10472673;28;20063;-67
2022/01/09 06:30:10;;;;;;;11.95;2.45;;;;;;;2.82;71.42;97915.75;10455075;28;20132;-67
2022/01/09 06:35:12;;;;;;;12.20;2.55;;;;;;;2.84;71.31;97925.06;10472270;28;20078;-67
2022/01/09 06:40:16;;;;;;;10.75;2.80;;;;;;;2.99;70.53;97949.94;10472023;28;20511;-67
2022/01/09 06:45:17;;;;;;;15.80;3.20;;;;;;;3.07;70.35;97956.41;10471675;28;20048;-67
2022/01/09 06:50:19;;;;;;;16.50;3.00;;;;;;;3.11;70.61;97974.19;10471730;28;20223;-67
2022/01/09 06:55:22;;;;;;;17.20;3.13;;;;;;;3.15;70.31;97998.09;10471533;28;20139;-67
2022/01/09 07:00:23;;;;;;;11.75;3.00;;;;;;;3.21;70.09;98005.47;10470822;28;20498;-67
2022/01/09 07:05:25;;;;;;;11.13;2.90;;;;;;;3.16;69.70;98008.31;10470945;28;20057;-67
2022/01/09 07:10:27;;;;;;;16.50;3.20;;;;;;;3.23;69.67;98024.28;10471148;28;20593;-67
2022/01/09 07:15:28;;;;;;;19.42;3.83;;;;;;;3.24;69.66;98033.69;10470395;28;20666;-68
2022/01/09 07:20:30;;;;;;;15.10;3.65;;;;;;;3.27;69.49;98049.84;10470381;28;20135;-67
2022/01/09 07:25:32;;;;;;;12.35;3.10;;;;;;;3.23;69.44;98058.72;10452654;28;20056;-67
2022/01/09 07:30:34;;;;;;;15.13;3.40;;;;;;;3.15;69.75;98073.84;10453045;28;20143;-67
2022/01/09 07:35:35;;;;;;;16.35;3.85;;;;;;;3.25;69.48;98072.38;10470175;28;20054;-67
2022/01/09 07:40:37;;;;;;;16.05;3.70;;;;;;;3.26;69.29;98096.41;10469681;28;20752;-68
2022/01/09 07:45:39;;;;;;;12.93;3.63;;;;;;;3.24;69.27;98108.59;10451328;28;20052;-67
2022/01/09 07:50:40;;;;;;;14.73;3.83;;;;;;;3.32;69.20;98121.91;10469322;28;20068;-67
2022/01/09 07:55:42;;;;;;;15.43;3.63;;;;;;;3.27;69.54;98134.28;10469642;28;20061;-67
2022/01/09 08:00:44;;;;;;;13.52;3.20;;;;;;;3.15;69.72;98163.41;10469114;28;20052;-67
2022/01/09 08:05:46;;;;;;;12.43;3.25;;;;;;;3.04;69.87;98176.91;10469226;28;20096;-67
2022/01/09 08:10:48;;;;;;;14.88;3.33;;;;;;;2.96;70.10;98198.03;10468861;28;20131;-67
2022/01/09 08:15:51;;;;;;;10.00;3.47;;;;;;;2.98;69.94;98210.84;10468420;28;20056;-67
2022/01/09 08:20:56;;;;;;;7.57;2.60;;;;;;;2.96;69.96;98213.50;10451201;28;20221;-67
2022/01/09 08:25:57;;;;;;;8.77;2.53;;;;;;;2.87;70.47;98221.75;10468134;28;20052;-67
2022/01/09 08:30:59;;;;;;;10.35;2.63;;;;;;;3.00;70.08;98214.16;10468326;28;20121;-67
2022/01/09 08:36:01;;;;;;;9.73;2.40;;;;;;;3.01;70.03;98236.47;10466964;28;20427;-67
2022/01/09 08:41:03;;;;;;;10.05;2.47;;;;;;;3.10;69.85;98246.31;10467900;28;20052;-67
2022/01/09 08:46:05;;;;;;;10.02;2.60;;;;;;;2.90;70.04;98254.31;10468103;28;20091;-67
2022/01/09 08:51:08;;;;;;;8.63;2.70;;;;;;;3.10;69.67;98260.97;10467008;28;20071;-67
2022/01/09 08:56:10;;;;;;;9.50;2.72;;;;;;;3.20;69.38;98277.59;10467575;28;20483;-67
2022/01/09 09:01:12;;;;;;;8.60;2.65;;;;;;;3.25;69.26;98281.63;10467135;28;20067;-66
2022/01/09 09:06:15;;;;;;;14.00;3.08;;;;;;;3.24;69.24;98292.00;10467267;28;20186;-67
2022/01/09 09:11:17;;;;;;;18.10;7.50;;;;;;;3.28;69.18;98294.34;10467483;28;20261;-67
2022/01/09 09:16:18;;;;;;;14.13;3.72;;;;;;;3.36;69.37;98302.50;10468020;28;20080;-67
2022/01/09 09:21:20;;;;;;;13.45;3.20;;;;;;;3.41;69.17;98313.41;10449102;28;20144;-67
2022/01/09 09:26:22;;;;;;;14.70;2.97;;;;;;;3.37;69.12;98321.41;10449133;28;20496;-67
2022/01/09 09:31:25;;;;;;;10.73;2.60;;;;;;;3.51;68.82;98343.00;10449043;28;20111;-67
2022/01/09 09:36:27;;;;;;;12.57;2.35;;;;;;;3.64;68.62;98343.13;10448595;28;20084;-67
2022/01/09 09:41:29;;;;;;;10.80;2.15;;;;;;;3.74;68.21;98350.25;10467334;28;20114;-67
2022/01/09 09:46:32;;;;;;;7.68;2.40;;;;;;;3.69;68.31;98354.03;10468740;28;20056;-67
2022/01/09 09:51:34;;;;;;;7.95;2.38;;;;;;;3.78;67.97;98363.84;10474401;28;20080;-67
2022/01/09 09:56:35;;;;;;;11.95;2.58;;;;;;;4.09;67.56;98368.94;10473181;28;20547;-67
2022/01/09 10:01:37;;;;;;;13.88;2.97;;;;;;;4.25;66.98;98379.25;10473548;28;20485;-67
2022/01/09 10:06:44;;;;;;;11.75;2.85;;;;;;;4.36;66.50;98393.22;10473196;28;20562;-66
2022/01/09 10:11:52;;;;;;;13.48;3.10;;;;;;;4.54;66.09;98389.53;10473425;28;20291;-67
2022/01/09 10:17:12;;;;;;;10.00;2.60;;;;;;;4.50;65.83;98390.63;10473245;28;20067;-67
2022/01/09 10:22:26;;;;;;;9.43;2.47;;;;;;;4.25;66.37;98394.78;10470652;28;20059;-67
2022/01/09 10:27:34;;;;;;;11.85;2.80;;;;;;;4.11;66.50;98398.13;10473583;28;20074;-67
2022/01/09 10:32:36;;;;;;;10.23;2.70;;;;;;;4.13;66.83;98416.19;10472616;28;20066;-67
2022/01/09 10:37:40;;;;;;;9.07;2.80;;;;;;;4.01;66.99;98417.69;10472245;28;20907;-67
2022/01/09 10:42:41;;;;;;;7.60;2.55;;;;;;;4.02;67.03;98429.72;10471823;28;20486;-67
2022/01/09 10:47:43;;;;;;;11.43;2.92;;;;;;;4.21;66.55;98434.69;10471889;28;20163;-67
2022/01/09 10:52:47;;;;;;;11.85;3.03;;;;;;;4.36;66.41;98439.78;10468184;28;20052;-67
2022/01/09 10:57:50;;;;;;;8.38;2.50;;;;;;;4.49;65.99;98440.75;10468972;28;20056;-67
2022/01/09 11:02:52;;;;;;;8.73;2.80;;;;;;;4.54;66.03;98441.31;10471244;28;20127;-67
2022/01/09 11:07:54;;;;;;;9.50;2.90;;;;;;;4.64;65.78;98450.19;10470591;28;20062;-67
2022/01/09 11:12:59;;;;;;;5.82;2.40;;;;;;;4.59;65.71;98460.00;10471491;28;20044;-67
2022/01/09 11:18:02;;;;;;;10.27;2.33;;;;;;;4.72;65.40;98462.69;10470519;28;20538;-67
2022/01/09 11:23:06;;;;;;;8.05;2.50;;;;;;;4.53;65.75;98473.31;10469937;28;20062;-67
2022/01/09 11:28:12;;;;;;;10.57;2.60;;;;;;;4.46;65.84;98471.97;10470493;28;20155;-67
2022/01/09 11:33:35;;;;;;;7.28;2.30;;;;;;;4.30;65.83;98485.88;10452940;28;20109;-65
2022/01/09 11:39:11;;;;;;;6.85;2.13;;;;;;;4.31;65.58;98487.56;10468473;28;20130;-67
2022/01/09 11:44:15;;;;;;;7.18;2.17;;;;;;;4.22;66.17;98488.94;10465371;28;20049;-67
2022/01/09 11:49:20;;;;;;;9.10;2.25;;;;;;;4.30;66.17;98491.91;10467858;28;20052;-67
2022/01/09 11:54:24;;;;;;;10.30;2.40;;;;;;;4.43;66.14;98498.03;10466762;28;20151;-67
2022/01/09 11:59:38;;;;;;;8.07;2.65;;;;;;;4.45;66.17;98498.81;10426944;28;20143;-67
2022/01/09 12:04:40;;;;;;;7.72;2.13;;;;;;;4.59;66.13;98498.84;10428508;28;20056;-65
2022/01/09 12:09:46;;;;;;;7.45;2.38;;;;;;;4.69;66.17;98494.78;10425747;28;20052;-64
2022/01/09 12:14:54;;;;;;;6.75;2.30;;;;;;;5.05;65.87;98488.31;10424729;28;20084;-64
2022/01/09 12:20:12;;;;;;;8.45;2.67;;;;;;;5.33;65.47;98477.97;10426018;28;21015;-65
2022/01/09 12:25:25;;;;;;;7.28;2.33;;;;;;;5.53;64.94;98487.94;10426432;28;20147;-64
2022/01/09 12:30:33;;;;;;;8.93;2.10;;;;;;;5.65;63.84;98489.78;10426466;28;20052;-64
2022/01/09 12:35:37;;;;;;;5.18;2.03;;;;;;;5.67;64.28;98480.13;10427084;28;20085;-64
2022/01/09 12:40:40;;;;;;;6.22;1.77;;;;;;;5.59;64.45;98486.72;10425085;28;20059;-64
2022/01/09 12:45:43;;;;;;;8.27;2.38;;;;;;;5.67;64.38;98481.88;10426565;28;20147;-64
2022/01/09 12:50:47;;;;;;;9.05;3.08;;;;;;;5.90;63.89;98482.09;10424975;28;20165;-65
2022/01/09 12:56:03;;;;;;;10.02;2.50;;;;;;;5.74;63.76;98485.78;10424965;28;20281;-64
2022/01/09 13:01:13;;;;;;;11.23;2.40;;;;;;;5.73;63.19;98497.06;10426399;28;20064;-64
2022/01/09 13:06:20;;;;;;;11.45;2.42;;;;;;;5.50;63.80;98495.91;10424639;28;20049;-64
2022/01/09 13:11:26;;;;;;;9.32;2.60;;;;;;;5.38;63.83;98505.28;10425534;28;20538;-64
2022/01/09 13:16:31;;;;;;;8.82;2.83;;;;;;;5.43;63.73;98502.41;10426038;28;20123;-64
2022/01/09 13:21:38;;;;;;;10.57;3.58;;;;;;;5.33;63.59;98516.84;10427374;28;20492;-64
2022/01/09 13:26:45;;;;;;;18.65;7.93;;;;;;;5.15;64.00;98523.13;10434137;28;20182;-64
2022/01/09 13:31:47;;;;;;;11.50;4.28;;;;;;;5.21;64.05;98522.75;10433644;28;20072;-64
2022/01/09 13:36:51;;;;;;;11.65;4.60;;;;;;;5.15;63.60;98533.50;10433370;28;20436;-64
2022/01/09 13:41:56;;;;;;;10.52;4.28;;;;;;;5.03;63.02;98529.03;10433682;28;20492;-64
2022/01/09 13:47:07;;;;;;;9.80;2.58;;;;;;;5.06;63.03;98532.31;10431852;28;20702;-64
2022/01/09 13:52:18;;;;;;;14.13;3.70;;;;;;;5.04;62.72;98535.91;10432752;28;20152;-64
2022/01/09 13:57:26;;;;;;;12.75;2.65;;;;;;;5.04;62.85;98535.91;10444145;28;20056;-65
2022/01/09 14:02:39;;;;;;;12.55;3.40;;;;;;;5.21;61.65;98543.50;10473726;28;20157;-65
2022/01/09 14:08:01;;;;;;;11.82;2.95;;;;;;;5.52;61.85;98549.34;10473404;28;20063;-65
2022/01/09 14:13:36;;;;;;;10.88;2.88;;;;;;;5.70;60.79;98543.94;10472778;28;20597;-65
2022/01/09 14:18:38;;;;;;;13.38;2.88;;;;;;;5.81;61.10;98547.53;10472021;28;20130;-65
2022/01/09 14:23:42;;;;;;;19.02;6.78;;;;;;;5.70;61.25;98557.72;10473699;28;20492;-64
2022/01/09 14:28:49;;;;;;;11.95;4.50;;;;;;;5.58;61.25;98568.88;10472880;28;20092;-64
2022/01/09 14:33:54;;;;;;;15.80;2.72;;;;;;;5.43;60.81;98575.00;10453582;28;20136;-64
2022/01/09 14:38:59;;;;;;;12.93;2.78;;;;;;;5.45;61.33;98578.34;10472263;28;20106;-64
2022/01/09 14:44:04;;;;;;;11.35;2.70;;;;;;;5.32;60.96;98587.75;10472402;28;20089;-64
2022/01/09 14:49:06;;;;;;;11.95;2.70;;;;;;;5.13;61.30;98600.13;10472011;28;20147;-64
2022/01/09 14:54:08;;;;;;;12.40;2.45;;;;;;;5.15;61.25;98611.22;10471001;28;20052;-64
2022/01/09 14:59:10;;;;;;;10.50;3.28;;;;;;;5.17;61.46;98618.00;10471376;28;20056;-64
2022/01/09 15:04:12;;;;;;;19.58;5.82;;;;;;;5.13;61.28;98616.50;10470277;28;20048;-63
2022/01/09 15:09:14;;;;;;;11.32;3.80;;;;;;;5.13;61.05;98633.81;10471472;28;20049;-64
2022/01/09 15:14:16;;;;;;;11.38;2.72;;;;;;;4.97;61.39;98630.44;10452283;28;20051;-64
2022/01/09 15:19:20;;;;;;;13.00;2.92;;;;;;;4.89;61.75;98637.81;10470191;28;20133;-64
2022/01/09 15:24:22;;;;;;;13.55;3.10;;;;;;;4.88;61.73;98641.34;10470910;28;20179;-64
2022/01/09 15:29:24;;;;;;;10.27;3.15;;;;;;;4.67;61.92;98646.81;10469592;28;20492;-63
2022/01/09 15:34:25;;;;;;;13.50;3.03;;;;;;;4.69;61.65;98657.09;10470345;28;20047;-63
2022/01/09 15:39:28;;;;;;;13.23;3.05;;;;;;;4.65;61.81;98668.53;10469909;28;20059;-63
2022/01/09 15:44:30;;;;;;;11.55;2.83;;;;;;;4.62;61.97;98677.31;10468407;28;20095;-63
2022/01/09 15:49:31;;;;;;;13.48;2.88;;;;;;;4.69;61.55;98683.84;10469645;28;20067;-63
2022/01/09 15:54:34;;;;;;;15.10;3.00;;;;;;;4.68;61.57;98695.09;10470425;28;20048;-64
2022/01/09 15:59:35;;;;;;;10.10;2.85;;;;;;;4.58;61.90;98706.88;10469167;28;20146;-63
2022/01/09 16:04:37;;;;;;;12.75;3.47;;;;;;;4.52;61.68;98712.38;10468592;28;20052;-64
2022/01/09 16:09:42;;;;;;;12.73;3.65;;;;;;;4.44;61.97;98717.16;10468419;28;20072;-64
2022/01/09 16:14:44;;;;;;;14.05;3.55;;;;;;;4.42;62.09;98723.31;10451285;28;20053;-63
2022/01/09 16:19:50;;;;;;;13.70;4.93;;;;;;;4.41;61.82;98727.66;10468988;28;20289;-64
2022/01/09 16:24:52;;;;;;;18.40;4.57;;;;;;;4.41;61.89;98730.25;10450662;28;20541;-65
2022/01/09 16:30:04;;;;;;;15.23;3.40;;;;;;;4.22;61.95;98739.94;10468273;28;20061;-64
2022/01/09 16:35:08;;;;;;;;;;;;;;;3.78;63.02;98741.38;10468823;28;20074;-64
2022/01/09 16:40:11;;;;;;;13.18;3.67;;;;;;;3.97;62.82;98751.63;10468895;28;19939;-63
2022/01/09 16:45:13;;;;;;;14.07;3.55;;;;;;;4.06;62.62;98759.75;10464623;28;20058;-68
2022/01/09 16:50:16;;;;;;;16.08;3.33;;;;;;;4.03;62.72;98761.69;10448926;28;20056;-69
2022/01/09 16:55:18;;;;;;;16.65;3.50;;;;;;;4.06;62.75;98767.53;10467456;28;20052;-68
2022/01/09 17:00:21;;;;;;;18.90;8.35;;;;;;;4.09;62.76;98779.47;10465506;28;20084;-69
2022/01/09 17:05:25;;;;;;;16.10;3.75;;;;;;;4.06;62.96;98782.19;10449554;28;20516;-69
2022/01/09 17:10:27;;;;;;;14.50;3.88;;;;;;;4.02;63.00;98776.34;10467110;28;20063;-69
2022/01/09 17:15:29;;;;;;;14.52;3.20;;;;;;;3.93;63.33;98799.25;10448933;28;20063;-69
2022/01/09 17:20:31;;;;;;;16.42;4.00;;;;;;;3.93;63.30;98792.34;10466278;28;20139;-69
2022/01/09 17:25:33;;;;;;;18.23;3.42;;;;;;;3.90;63.33;98802.00;10467331;28;20052;-69
2022/01/09 17:30:35;;;;;;;15.13;3.25;;;;;;;3.83;63.66;98806.63;10460132;28;20055;-69
2022/01/09 17:35:37;;;;;;;13.07;3.28;;;;;;;3.79;63.88;98820.63;10448301;28;20080;-69
2022/01/09 17:40:40;;;;;;;17.98;3.53;;;;;;;3.77;64.04;98827.59;10466367;28;20412;-69
2022/01/09 17:45:42;;;;;;;13.52;3.65;;;;;;;3.69;63.94;98829.75;10446535;28;20198;-69
2022/01/09 17:50:44;;;;;;;14.40;3.17;;;;;;;3.70;64.43;98837.41;10445098;28;20155;-69
2022/01/09 17:55:46;;;;;;;13.02;3.00;;;;;;;3.66;64.30;98840.25;10463160;28;20135;-69
2022/01/09 18:00:48;;;;;;;13.13;3.20;;;;;;;3.72;64.01;98851.09;10420280;28;20061;-69
2022/01/09 18:05:50;;;;;;;17.65;3.55;;;;;;;3.69;64.11;98853.84;10422527;28;20539;-69
2022/01/09 18:10:51;;;;;;;14.07;3.05;;;;;;;3.66;64.19;98871.28;10429423;28;20922;-69
2022/01/09 18:15:53;;;;;;;13.02;3.67;;;;;;;3.59;64.37;98880.22;10428202;28;20052;-69
2022/01/09 18:20:55;;;;;;;12.95;3.83;;;;;;;3.54;64.48;98890.78;10426798;28;20068;-69
2022/01/09 18:25:57;;;;;;;17.98;4.15;;;;;;;3.47;64.72;98891.16;10429045;28;20471;-69
2022/01/09 18:30:59;;;;;;;14.88;3.35;;;;;;;3.40;64.61;98894.91;10414020;28;20074;-69
2022/01/09 18:36:02;;;;;;;14.27;3.38;;;;;;;3.34;64.70;98898.63;10428929;28;20138;-69
2022/01/09 18:41:05;;;;;;;18.02;3.72;;;;;;;3.33;64.79;98909.91;10428577;28;20084;-68
2022/01/09 18:46:06;;;;;;;18.52;3.60;;;;;;;3.25;65.00;98917.16;10427853;28;20064;-69
2022/01/09 18:51:08;;;;;;;18.30;3.42;;;;;;;3.18;64.91;98930.41;10429782;28;20064;-68
2022/01/09 18:56:13;;;;;;;12.90;3.55;;;;;;;3.14;64.84;98918.53;10429854;28;20429;-69
2022/01/09 19:01:17;;;;;;;16.65;3.33;;;;;;;3.14;64.77;98939.22;10452656;28;20060;-69
2022/01/09 19:06:18;;;;;;;18.60;4.57;;;;;;;3.17;65.16;98941.69;10470787;28;20056;-69
2022/01/09 19:11:20;;;;;;;12.57;3.05;;;;;;;3.19;65.04;98942.44;10469602;28;20070;-68
2022/01/09 19:16:23;;;;;;;18.88;5.57;;;;;;;3.29;64.79;98949.72;10453293;28;20052;-69
2022/01/09 19:21:29;;;;;;;16.55;3.38;;;;;;;3.32;64.77;98951.28;10450780;28;20054;-68
2022/01/09 19:26:30;;;;;;;16.88;4.40;;;;;;;3.34;64.82;98963.25;10470036;28;20130;-69
2022/01/09 19:31:33;;;;;;;16.58;4.20;;;;;;;3.34;64.98;98973.56;10470014;28;20052;-69
2022/01/09 19:36:35;;;;;;;16.67;3.78;;;;;;;3.42;64.96;98980.97;10468499;28;20048;-68
2022/01/09 19:41:38;;;;;;;13.98;3.80;;;;;;;3.44;64.69;98986.91;10469805;28;20143;-68
2022/01/09 19:46:40;;;;;;;15.35;3.92;;;;;;;3.45;64.63;98993.78;10469413;28;20262;-68
2022/01/09 19:51:42;;;;;;;14.93;4.30;;;;;;;3.39;64.91;98996.63;10469497;28;20159;-68
2022/01/09 19:56:44;;;;;;;17.77;3.80;;;;;;;3.44;64.90;99002.41;10452205;28;20135;-68
2022/01/09 20:01:46;;;;;;;11.43;3.72;;;;;;;3.41;64.94;99013.75;10471231;28;20048;-68
2022/01/09 20:06:47;;;;;;;20.63;4.20;;;;;;;3.40;65.03;99021.56;10469297;28;20056;-68
2022/01/09 20:11:51;;;;;;;16.00;3.55;;;;;;;3.45;64.80;99023.03;10450761;28;20153;-68
2022/01/09 20:16:53;;;;;;;13.48;4.00;;;;;;;3.46;64.92;99029.88;10467108;28;20144;-68
2022/01/09 20:21:56;;;;;;;15.00;3.50;;;;;;;3.53;64.80;99040.78;10468028;28;20627;-68
2022/01/09 20:26:58;;;;;;;13.60;3.92;;;;;;;3.62;64.35;99048.13;10467745;28;20053;-68
2022/01/09 20:31:59;;;;;;;14.45;3.42;;;;;;;3.60;64.43;99052.53;10467554;28;20044;-68
2022/01/09 20:37:02;;;;;;;16.45;3.42;;;;;;;3.68;64.46;99060.78;10456970;28;20048;-67
2022/01/09 20:42:06;;;;;;;13.35;3.70;;;;;;;3.73;64.10;99069.16;10466746;28;20059;-67
2022/01/09 20:47:09;;;;;;;15.80;3.50;;;;;;;3.69;64.09;99072.78;10465955;28;20063;-67
2022/01/09 20:52:11;;;;;;;13.25;3.60;;;;;;;3.57;64.40;99081.09;10467037;28;20067;-67
2022/01/09 20:57:16;;;;;;;15.68;3.60;;;;;;;3.45;64.40;99092.84;10466033;28;20407;-67
2022/01/09 21:02:18;;;;;;;19.27;6.15;;;;;;;3.32;64.64;99096.00;10466743;28;20408;-67
2022/01/09 21:07:20;;;;;;;19.88;5.45;;;;;;;3.09;64.77;99094.41;10465781;28;20506;-66
2022/01/09 21:12:21;;;;;;;17.65;7.47;;;;;;;2.93;64.96;99107.13;10466438;28;20882;-66
2022/01/09 21:17:23;;;;;;;16.67;3.97;;;;;;;2.79;65.41;99111.19;10466066;28;20056;-67
2022/01/09 21:22:25;;;;;;;14.95;3.47;;;;;;;2.62;65.51;99117.03;10465931;28;20056;-67
2022/01/09 21:27:29;;;;;;;12.68;3.10;;;;;;;2.54;65.64;99126.84;10447273;28;20056;-66
2022/01/09 21:32:31;;;;;;;12.10;3.55;;;;;;;2.37;66.30;99134.41;10466256;28;20056;-66
2022/01/09 21:37:35;;;;;;;12.57;3.88;;;;;;;2.29;66.40;99143.34;10464207;28;20147;-67
2022/01/09 21:42:37;;;;;;;16.45;4.18;;;;;;;2.17;66.33;99158.38;10451076;28;20051;-67
2022/01/09 21:47:39;;;;;;;15.02;3.20;;;;;;;2.10;66.75;99164.69;10472963;28;20056;-66
2022/01/09 21:52:41;;;;;;;15.43;3.90;;;;;;;2.11;66.92;99166.34;10453960;28;20777;-67
2022/01/09 21:57:45;;;;;;;17.35;4.07;;;;;;;2.28;66.98;99178.63;10468146;28;20053;-66
2022/01/09 22:02:47;;;;;;;13.50;3.60;;;;;;;2.36;66.86;99174.00;10472482;28;20048;-67
2022/01/09 22:07:49;;;;;;;14.40;3.80;;;;;;;2.35;66.85;99177.50;10473279;28;20518;-66
2022/01/09 22:12:51;;;;;;;18.05;4.25;;;;;;;2.29;66.74;99174.31;10471930;28;20052;-66
2022/01/09 22:17:53;;;;;;;14.30;3.80;;;;;;;2.19;66.70;99191.88;10472963;28;20139;-67
2022/01/09 22:22:55;;;;;;;15.30;3.67;;;;;;;2.06;66.75;99193.22;10472808;28;20054;-66
2022/01/09 22:27:58;;;;;;;14.85;3.72;;;;;;;1.96;67.10;99203.06;10472224;28;20060;-67
2022/01/09 22:33:00;;;;;;;24.75;3.85;;;;;;;1.86;67.33;99201.72;10454502;28;20564;-67
2022/01/09 22:38:02;;;;;;;17.48;4.38;;;;;;;1.79;67.39;99220.00;10471489;28;21176;-67
2022/01/09 22:43:04;;;;;;;17.70;4.10;;;;;;;1.62;67.31;99236.09;10453763;28;20139;-67
2022/01/09 22:48:06;;;;;;;17.95;4.43;;;;;;;1.54;67.70;99234.66;10471805;28;20052;-67
2022/01/09 22:53:08;;;;;;;13.00;4.32;;;;;;;1.48;67.91;99250.34;10470183;28;20052;-67
2022/01/09 22:58:09;;;;;;;16.70;3.85;;;;;;;1.41;68.00;99247.13;10471144;28;20059;-67
2022/01/09 23:03:14;;;;;;;16.42;4.57;;;;;;;1.36;68.10;99257.56;10470902;28;20091;-67
2022/01/09 23:08:16;;;;;;;18.10;4.90;;;;;;;1.29;67.93;99268.97;10467844;28;20074;-67
2022/01/09 23:13:17;;;;;;;15.98;3.83;;;;;;;1.05;67.93;99282.66;10470127;28;20050;-67
2022/01/09 23:18:19;;;;;;;23.38;7.43;;;;;;;0.85;68.71;99297.84;10470366;28;20127;-67
2022/01/09 23:23:21;;;;;;;19.60;6.43;;;;;;;0.87;68.76;99303.78;10469882;28;20061;-67
2022/01/09 23:28:23;;;;;;;21.85;7.15;;;;;;;0.91;68.79;99310.53;10469937;28;20048;-67
2022/01/09 23:33:25;;;;;;;20.27;7.85;;;;;;;0.86;68.60;99315.00;10470319;28;20053;-67
2022/01/09 23:38:27;;;;;;;19.33;6.85;;;;;;;0.79;68.51;99316.06;10451493;28;20623;-66